sensor_id;sensor_type;location;lat;lon;timestamp;P1;durP1;ratioP1;P2;durP2;ratioP2
67528;SDS011;54366;51.980;5.856;2022-10-16T00:01:24;3.38;;;1.95;;
67528;SDS011;54366;51.980;5.856;2022-10-16T00:03:54;1.80;;;1.42;;
67528;SDS011;54366;51.980;5.856;2022-10-16T00:06:22;3.08;;;1.42;;
67528;SDS011;54366;51.980;5.856;2022-10-16T00:08:49;2.00;;;1.52;;
67528;SDS011;54366;51.980;5.856;2022-10-16T00:11:17;2.92;;;1.40;;
67528;SDS011;54366;51.980;5.856;2022-10-16T00:13:48;3.22;;;1.55;;
67528;SDS011;54366;51.980;5.856;2022-10-16T00:16:17;3.00;;;1.63;;
67528;SDS011;54366;51.980;5.856;2022-10-16T00:18:45;1.90;;;1.50;;
67528;SDS011;54366;51.980;5.856;2022-10-16T00:21:13;1.63;;;1.40;;
67528;SDS011;54366;51.980;5.856;2022-10-16T00:23:41;5.03;;;1.52;;
67528;SDS011;54366;51.980;5.856;2022-10-16T00:26:08;2.60;;;1.45;;
67528;SDS011;54366;51.980;5.856;2022-10-16T00:28:38;2.70;;;1.33;;
67528;SDS011;54366;51.980;5.856;2022-10-16T00:31:05;1.45;;;1.10;;
67528;SDS011;54366;51.980;5.856;2022-10-16T00:33:36;3.58;;;1.38;;
67528;SDS011;54366;51.980;5.856;2022-10-16T00:36:04;1.65;;;1.02;;
67528;SDS011;54366;51.980;5.856;2022-10-16T00:38:31;1.90;;;1.25;;
67528;SDS011;54366;51.980;5.856;2022-10-16T00:40:58;1.30;;;1.20;;
67528;SDS011;54366;51.980;5.856;2022-10-16T00:43:39;2.22;;;1.50;;
67528;SDS011;54366;51.980;5.856;2022-10-16T00:49:01;2.03;;;1.20;;
67528;SDS011;54366;51.980;5.856;2022-10-16T00:51:34;2.47;;;1.30;;
67528;SDS011;54366;51.980;5.856;2022-10-16T00:54:04;3.30;;;1.40;;
67528;SDS011;54366;51.980;5.856;2022-10-16T00:56:52;2.50;;;1.17;;
67528;SDS011;54366;51.980;5.856;2022-10-16T00:59:25;2.22;;;1.40;;
67528;SDS011;54366;51.980;5.856;2022-10-16T01:01:56;2.53;;;1.35;;
67528;SDS011;54366;51.980;5.856;2022-10-16T01:04:24;1.98;;;1.45;;
67528;SDS011;54366;51.980;5.856;2022-10-16T01:12:04;2.13;;;1.60;;
67528;SDS011;54366;51.980;5.856;2022-10-16T01:14:48;2.45;;;1.60;;
67528;SDS011;54366;51.980;5.856;2022-10-16T01:17:28;2.03;;;1.33;;
67528;SDS011;54366;51.980;5.856;2022-10-16T01:29:01;2.42;;;1.50;;
67528;SDS011;54366;51.980;5.856;2022-10-16T01:31:27;1.98;;;1.20;;
67528;SDS011;54366;51.980;5.856;2022-10-16T01:34:02;1.63;;;1.42;;
67528;SDS011;54366;51.980;5.856;2022-10-16T01:36:48;2.92;;;1.70;;
67528;SDS011;54366;51.980;5.856;2022-10-16T01:39:24;3.20;;;1.60;;
67528;SDS011;54366;51.980;5.856;2022-10-16T01:41:58;2.92;;;1.30;;
67528;SDS011;54366;51.980;5.856;2022-10-16T01:44:30;1.50;;;1.40;;
67528;SDS011;54366;51.980;5.856;2022-10-16T01:46:58;2.13;;;1.40;;
67528;SDS011;54366;51.980;5.856;2022-10-16T01:49:26;1.42;;;1.30;;
67528;SDS011;54366;51.980;5.856;2022-10-16T01:51:58;2.05;;;1.40;;
67528;SDS011;54366;51.980;5.856;2022-10-16T01:54:27;2.22;;;1.50;;
67528;SDS011;54366;51.980;5.856;2022-10-16T01:56:56;2.13;;;1.50;;
67528;SDS011;54366;51.980;5.856;2022-10-16T01:59:24;1.58;;;1.42;;
67528;SDS011;54366;51.980;5.856;2022-10-16T02:01:52;1.90;;;1.33;;
67528;SDS011;54366;51.980;5.856;2022-10-16T02:04:33;2.45;;;1.70;;
67528;SDS011;54366;51.980;5.856;2022-10-16T02:07:02;2.00;;;1.35;;
67528;SDS011;54366;51.980;5.856;2022-10-16T02:09:29;2.35;;;1.67;;
67528;SDS011;54366;51.980;5.856;2022-10-16T02:11:59;1.63;;;1.30;;
67528;SDS011;54366;51.980;5.856;2022-10-16T02:14:28;1.70;;;1.30;;
67528;SDS011;54366;51.980;5.856;2022-10-16T02:16:55;1.85;;;1.33;;
67528;SDS011;54366;51.980;5.856;2022-10-16T02:19:22;1.35;;;1.25;;
67528;SDS011;54366;51.980;5.856;2022-10-16T02:21:55;1.83;;;1.33;;
67528;SDS011;54366;51.980;5.856;2022-10-16T02:24:31;1.48;;;1.35;;
67528;SDS011;54366;51.980;5.856;2022-10-16T02:30:00;1.30;;;1.00;;
67528;SDS011;54366;51.980;5.856;2022-10-16T02:32:33;2.50;;;1.10;;
67528;SDS011;54366;51.980;5.856;2022-10-16T02:35:02;2.13;;;1.42;;
67528;SDS011;54366;51.980;5.856;2022-10-16T02:37:30;1.33;;;1.20;;
67528;SDS011;54366;51.980;5.856;2022-10-16T02:39:58;1.35;;;1.10;;
67528;SDS011;54366;51.980;5.856;2022-10-16T02:42:28;2.25;;;1.27;;
67528;SDS011;54366;51.980;5.856;2022-10-16T02:44:58;0.95;;;0.82;;
67528;SDS011;54366;51.980;5.856;2022-10-16T02:47:25;2.50;;;1.50;;
67528;SDS011;54366;51.980;5.856;2022-10-16T02:49:52;1.15;;;1.10;;
67528;SDS011;54366;51.980;5.856;2022-10-16T02:52:18;1.42;;;1.20;;
67528;SDS011;54366;51.980;5.856;2022-10-16T02:54:44;1.35;;;0.90;;
67528;SDS011;54366;51.980;5.856;2022-10-16T02:57:11;2.42;;;1.42;;
67528;SDS011;54366;51.980;5.856;2022-10-16T02:59:37;1.17;;;1.00;;
67528;SDS011;54366;51.980;5.856;2022-10-16T03:02:03;0.95;;;0.95;;
67528;SDS011;54366;51.980;5.856;2022-10-16T03:04:29;1.35;;;0.95;;
67528;SDS011;54366;51.980;5.856;2022-10-16T03:06:56;1.20;;;1.10;;
67528;SDS011;54366;51.980;5.856;2022-10-16T03:09:22;1.38;;;1.20;;
67528;SDS011;54366;51.980;5.856;2022-10-16T03:11:48;1.70;;;1.00;;
67528;SDS011;54366;51.980;5.856;2022-10-16T03:14:14;2.20;;;1.17;;
67528;SDS011;54366;51.980;5.856;2022-10-16T03:16:42;1.35;;;0.90;;
67528;SDS011;54366;51.980;5.856;2022-10-16T03:19:08;1.15;;;0.88;;
67528;SDS011;54366;51.980;5.856;2022-10-16T03:21:35;1.25;;;1.13;;
67528;SDS011;54366;51.980;5.856;2022-10-16T03:24:01;1.75;;;1.17;;
67528;SDS011;54366;51.980;5.856;2022-10-16T03:26:27;2.53;;;1.20;;
67528;SDS011;54366;51.980;5.856;2022-10-16T03:28:53;1.45;;;0.90;;
67528;SDS011;54366;51.980;5.856;2022-10-16T03:31:19;1.17;;;1.08;;
67528;SDS011;54366;51.980;5.856;2022-10-16T03:33:46;2.00;;;1.30;;
67528;SDS011;54366;51.980;5.856;2022-10-16T03:36:12;1.23;;;1.13;;
67528;SDS011;54366;51.980;5.856;2022-10-16T03:38:38;1.52;;;1.05;;
67528;SDS011;54366;51.980;5.856;2022-10-16T03:41:04;1.48;;;0.80;;
67528;SDS011;54366;51.980;5.856;2022-10-16T03:43:33;1.05;;;0.90;;
67528;SDS011;54366;51.980;5.856;2022-10-16T03:46:00;1.10;;;0.98;;
67528;SDS011;54366;51.980;5.856;2022-10-16T03:48:26;2.90;;;1.05;;
67528;SDS011;54366;51.980;5.856;2022-10-16T03:50:52;1.63;;;1.00;;
67528;SDS011;54366;51.980;5.856;2022-10-16T03:53:18;1.48;;;0.93;;
67528;SDS011;54366;51.980;5.856;2022-10-16T03:55:44;0.93;;;0.70;;
67528;SDS011;54366;51.980;5.856;2022-10-16T03:58:11;1.30;;;0.93;;
67528;SDS011;54366;51.980;5.856;2022-10-16T04:00:41;1.52;;;1.02;;
67528;SDS011;54366;51.980;5.856;2022-10-16T04:03:08;1.15;;;0.95;;
67528;SDS011;54366;51.980;5.856;2022-10-16T04:05:34;1.48;;;0.93;;
67528;SDS011;54366;51.980;5.856;2022-10-16T04:08:00;1.52;;;0.80;;
67528;SDS011;54366;51.980;5.856;2022-10-16T04:10:27;1.20;;;1.10;;
67528;SDS011;54366;51.980;5.856;2022-10-16T04:12:53;2.08;;;0.85;;
67528;SDS011;54366;51.980;5.856;2022-10-16T04:15:22;2.08;;;0.95;;
67528;SDS011;54366;51.980;5.856;2022-10-16T04:17:48;1.27;;;0.80;;
67528;SDS011;54366;51.980;5.856;2022-10-16T04:20:15;1.15;;;1.02;;
67528;SDS011;54366;51.980;5.856;2022-10-16T04:22:41;2.83;;;0.98;;
67528;SDS011;54366;51.980;5.856;2022-10-16T04:25:07;1.02;;;0.90;;
67528;SDS011;54366;51.980;5.856;2022-10-16T04:27:34;1.50;;;0.85;;
67528;SDS011;54366;51.980;5.856;2022-10-16T04:30:00;2.70;;;0.93;;
67528;SDS011;54366;51.980;5.856;2022-10-16T04:32:26;1.42;;;0.85;;
67528;SDS011;54366;51.980;5.856;2022-10-16T04:34:53;0.90;;;0.70;;
67528;SDS011;54366;51.980;5.856;2022-10-16T04:37:22;2.15;;;1.10;;
67528;SDS011;54366;51.980;5.856;2022-10-16T04:39:51;0.85;;;0.85;;
67528;SDS011;54366;51.980;5.856;2022-10-16T04:42:18;0.80;;;0.80;;
67528;SDS011;54366;51.980;5.856;2022-10-16T04:44:44;1.05;;;0.80;;
67528;SDS011;54366;51.980;5.856;2022-10-16T04:47:10;1.17;;;1.08;;
67528;SDS011;54366;51.980;5.856;2022-10-16T04:49:38;1.02;;;0.70;;
67528;SDS011;54366;51.980;5.856;2022-10-16T04:52:04;1.92;;;0.77;;
67528;SDS011;54366;51.980;5.856;2022-10-16T04:54:30;1.73;;;1.00;;
67528;SDS011;54366;51.980;5.856;2022-10-16T04:56:57;1.70;;;0.98;;
67528;SDS011;54366;51.980;5.856;2022-10-16T04:59:23;1.23;;;0.70;;
67528;SDS011;54366;51.980;5.856;2022-10-16T05:01:49;1.13;;;0.88;;
67528;SDS011;54366;51.980;5.856;2022-10-16T05:04:15;1.38;;;1.00;;
67528;SDS011;54366;51.980;5.856;2022-10-16T05:06:42;2.63;;;1.15;;
67528;SDS011;54366;51.980;5.856;2022-10-16T05:09:08;1.30;;;0.93;;
67528;SDS011;54366;51.980;5.856;2022-10-16T05:11:35;1.65;;;1.08;;
67528;SDS011;54366;51.980;5.856;2022-10-16T05:14:01;1.30;;;0.90;;
67528;SDS011;54366;51.980;5.856;2022-10-16T05:16:28;1.10;;;0.90;;
67528;SDS011;54366;51.980;5.856;2022-10-16T05:18:55;0.90;;;0.73;;
67528;SDS011;54366;51.980;5.856;2022-10-16T05:21:22;1.52;;;0.77;;
67528;SDS011;54366;51.980;5.856;2022-10-16T05:23:48;0.82;;;0.82;;
67528;SDS011;54366;51.980;5.856;2022-10-16T05:26:14;1.27;;;0.90;;
67528;SDS011;54366;51.980;5.856;2022-10-16T05:28:40;1.17;;;0.80;;
67528;SDS011;54366;51.980;5.856;2022-10-16T05:31:07;0.75;;;0.75;;
67528;SDS011;54366;51.980;5.856;2022-10-16T05:33:34;0.93;;;0.68;;
67528;SDS011;54366;51.980;5.856;2022-10-16T05:36:05;1.67;;;1.00;;
67528;SDS011;54366;51.980;5.856;2022-10-16T05:38:33;1.83;;;0.90;;
67528;SDS011;54366;51.980;5.856;2022-10-16T05:41:00;1.00;;;0.75;;
67528;SDS011;54366;51.980;5.856;2022-10-16T05:43:29;1.48;;;1.15;;
67528;SDS011;54366;51.980;5.856;2022-10-16T05:45:57;1.30;;;1.20;;
67528;SDS011;54366;51.980;5.856;2022-10-16T05:48:25;1.75;;;1.00;;
67528;SDS011;54366;51.980;5.856;2022-10-16T05:50:59;2.22;;;1.10;;
67528;SDS011;54366;51.980;5.856;2022-10-16T05:55:56;1.27;;;0.98;;
67528;SDS011;54366;51.980;5.856;2022-10-16T05:58:24;1.85;;;1.00;;
67528;SDS011;54366;51.980;5.856;2022-10-16T06:00:57;0.93;;;0.70;;
67528;SDS011;54366;51.980;5.856;2022-10-16T06:03:29;0.90;;;0.90;;
67528;SDS011;54366;51.980;5.856;2022-10-16T06:05:55;1.50;;;1.02;;
67528;SDS011;54366;51.980;5.856;2022-10-16T06:08:21;1.33;;;0.90;;
67528;SDS011;54366;51.980;5.856;2022-10-16T06:10:49;2.08;;;1.20;;
67528;SDS011;54366;51.980;5.856;2022-10-16T06:13:26;2.20;;;0.90;;
67528;SDS011;54366;51.980;5.856;2022-10-16T06:15:52;1.23;;;0.90;;
67528;SDS011;54366;51.980;5.856;2022-10-16T06:18:18;1.20;;;0.90;;
67528;SDS011;54366;51.980;5.856;2022-10-16T06:20:45;1.83;;;0.90;;
67528;SDS011;54366;51.980;5.856;2022-10-16T06:23:11;1.48;;;1.10;;
67528;SDS011;54366;51.980;5.856;2022-10-16T06:25:37;1.00;;;0.90;;
67528;SDS011;54366;51.980;5.856;2022-10-16T06:28:03;1.50;;;0.77;;
67528;SDS011;54366;51.980;5.856;2022-10-16T06:30:29;0.90;;;0.80;;
67528;SDS011;54366;51.980;5.856;2022-10-16T06:32:55;1.77;;;0.80;;
67528;SDS011;54366;51.980;5.856;2022-10-16T06:35:22;0.90;;;0.90;;
67528;SDS011;54366;51.980;5.856;2022-10-16T06:37:48;1.05;;;1.00;;
67528;SDS011;54366;51.980;5.856;2022-10-16T06:40:14;2.22;;;1.20;;
67528;SDS011;54366;51.980;5.856;2022-10-16T06:42:41;1.73;;;1.10;;
67528;SDS011;54366;51.980;5.856;2022-10-16T06:45:07;0.90;;;0.73;;
67528;SDS011;54366;51.980;5.856;2022-10-16T06:47:34;1.40;;;0.90;;
67528;SDS011;54366;51.980;5.856;2022-10-16T06:50:00;0.90;;;0.80;;
67528;SDS011;54366;51.980;5.856;2022-10-16T06:52:29;1.30;;;0.80;;
67528;SDS011;54366;51.980;5.856;2022-10-16T06:54:55;1.17;;;0.80;;
67528;SDS011;54366;51.980;5.856;2022-10-16T06:57:22;1.30;;;1.00;;
67528;SDS011;54366;51.980;5.856;2022-10-16T06:59:48;1.67;;;0.90;;
67528;SDS011;54366;51.980;5.856;2022-10-16T07:02:14;1.88;;;1.13;;
67528;SDS011;54366;51.980;5.856;2022-10-16T07:04:40;1.30;;;0.80;;
67528;SDS011;54366;51.980;5.856;2022-10-16T07:07:06;1.08;;;0.80;;
67528;SDS011;54366;51.980;5.856;2022-10-16T07:09:32;1.35;;;0.80;;
67528;SDS011;54366;51.980;5.856;2022-10-16T07:11:59;2.35;;;0.95;;
67528;SDS011;54366;51.980;5.856;2022-10-16T07:14:25;1.30;;;0.80;;
67528;SDS011;54366;51.980;5.856;2022-10-16T07:16:51;1.13;;;0.95;;
67528;SDS011;54366;51.980;5.856;2022-10-16T07:19:17;1.27;;;0.75;;
67528;SDS011;54366;51.980;5.856;2022-10-16T07:21:44;0.82;;;0.80;;
67528;SDS011;54366;51.980;5.856;2022-10-16T07:24:11;0.65;;;0.60;;
67528;SDS011;54366;51.980;5.856;2022-10-16T07:26:40;1.00;;;0.60;;
67528;SDS011;54366;51.980;5.856;2022-10-16T07:29:17;1.63;;;0.70;;
67528;SDS011;54366;51.980;5.856;2022-10-16T07:31:46;1.92;;;1.27;;
67528;SDS011;54366;51.980;5.856;2022-10-16T07:34:14;4.50;;;1.50;;
67528;SDS011;54366;51.980;5.856;2022-10-16T07:36:41;1.70;;;1.30;;
67528;SDS011;54366;51.980;5.856;2022-10-16T07:39:08;1.58;;;0.90;;
67528;SDS011;54366;51.980;5.856;2022-10-16T07:41:34;0.88;;;0.70;;
67528;SDS011;54366;51.980;5.856;2022-10-16T07:44:02;2.20;;;1.10;;
67528;SDS011;54366;51.980;5.856;2022-10-16T07:46:29;1.92;;;1.00;;
67528;SDS011;54366;51.980;5.856;2022-10-16T07:48:56;1.45;;;0.95;;
67528;SDS011;54366;51.980;5.856;2022-10-16T07:51:23;1.83;;;1.25;;
67528;SDS011;54366;51.980;5.856;2022-10-16T07:53:51;3.05;;;1.60;;
67528;SDS011;54366;51.980;5.856;2022-10-16T07:56:18;3.65;;;1.60;;
67528;SDS011;54366;51.980;5.856;2022-10-16T07:58:45;2.30;;;1.33;;
67528;SDS011;54366;51.980;5.856;2022-10-16T08:01:13;3.97;;;1.63;;
67528;SDS011;54366;51.980;5.856;2022-10-16T08:03:47;3.90;;;1.70;;
67528;SDS011;54366;51.980;5.856;2022-10-16T08:06:15;2.65;;;1.63;;
67528;SDS011;54366;51.980;5.856;2022-10-16T08:08:42;2.13;;;1.50;;
67528;SDS011;54366;51.980;5.856;2022-10-16T08:11:09;2.25;;;1.65;;
67528;SDS011;54366;51.980;5.856;2022-10-16T08:13:35;4.75;;;1.85;;
67528;SDS011;54366;51.980;5.856;2022-10-16T08:16:02;2.72;;;1.70;;
67528;SDS011;54366;51.980;5.856;2022-10-16T08:18:36;2.95;;;1.63;;
67528;SDS011;54366;51.980;5.856;2022-10-16T08:21:04;3.00;;;2.08;;
67528;SDS011;54366;51.980;5.856;2022-10-16T08:23:32;2.47;;;1.30;;
67528;SDS011;54366;51.980;5.856;2022-10-16T08:26:02;3.83;;;1.63;;
67528;SDS011;54366;51.980;5.856;2022-10-16T08:28:31;3.05;;;1.55;;
67528;SDS011;54366;51.980;5.856;2022-10-16T08:31:04;2.85;;;1.45;;
67528;SDS011;54366;51.980;5.856;2022-10-16T08:33:34;2.95;;;1.60;;
67528;SDS011;54366;51.980;5.856;2022-10-16T08:36:02;2.40;;;1.58;;
67528;SDS011;54366;51.980;5.856;2022-10-16T08:38:29;3.28;;;1.80;;
67528;SDS011;54366;51.980;5.856;2022-10-16T08:43:54;2.97;;;1.20;;
67528;SDS011;54366;51.980;5.856;2022-10-16T08:46:47;4.25;;;1.88;;
67528;SDS011;54366;51.980;5.856;2022-10-16T08:49:22;2.53;;;1.70;;
67528;SDS011;54366;51.980;5.856;2022-10-16T08:51:50;5.50;;;1.95;;
67528;SDS011;54366;51.980;5.856;2022-10-16T08:56:54;1.90;;;1.30;;
67528;SDS011;54366;51.980;5.856;2022-10-16T08:59:22;2.60;;;1.70;;
67528;SDS011;54366;51.980;5.856;2022-10-16T09:01:50;2.90;;;1.60;;
67528;SDS011;54366;51.980;5.856;2022-10-16T09:07:02;3.28;;;1.48;;
67528;SDS011;54366;51.980;5.856;2022-10-16T09:12:19;4.60;;;2.00;;
67528;SDS011;54366;51.980;5.856;2022-10-16T09:15:16;3.00;;;1.83;;
67528;SDS011;54366;51.980;5.856;2022-10-16T09:20:38;4.50;;;1.50;;
67528;SDS011;54366;51.980;5.856;2022-10-16T09:25:46;3.35;;;1.50;;
67528;SDS011;54366;51.980;5.856;2022-10-16T09:28:14;4.43;;;1.30;;
67528;SDS011;54366;51.980;5.856;2022-10-16T09:30:41;3.50;;;1.55;;
67528;SDS011;54366;51.980;5.856;2022-10-16T09:33:09;3.63;;;1.27;;
67528;SDS011;54366;51.980;5.856;2022-10-16T09:35:38;4.00;;;1.45;;
67528;SDS011;54366;51.980;5.856;2022-10-16T09:38:20;3.97;;;1.48;;
67528;SDS011;54366;51.980;5.856;2022-10-16T09:40:57;6.47;;;1.55;;
67528;SDS011;54366;51.980;5.856;2022-10-16T09:43:32;5.55;;;1.73;;
67528;SDS011;54366;51.980;5.856;2022-10-16T09:48:59;5.05;;;1.15;;
67528;SDS011;54366;51.980;5.856;2022-10-16T09:51:29;3.83;;;1.30;;
67528;SDS011;54366;51.980;5.856;2022-10-16T09:54:13;5.53;;;2.03;;
67528;SDS011;54366;51.980;5.856;2022-10-16T09:56:44;4.32;;;1.77;;
67528;SDS011;54366;51.980;5.856;2022-10-16T09:59:19;4.85;;;1.48;;
67528;SDS011;54366;51.980;5.856;2022-10-16T10:01:47;5.00;;;1.60;;
67528;SDS011;54366;51.980;5.856;2022-10-16T10:04:16;5.22;;;1.55;;
67528;SDS011;54366;51.980;5.856;2022-10-16T10:06:48;4.30;;;1.40;;
67528;SDS011;54366;51.980;5.856;2022-10-16T10:09:21;4.03;;;1.50;;
67528;SDS011;54366;51.980;5.856;2022-10-16T10:14:23;4.43;;;1.23;;
67528;SDS011;54366;51.980;5.856;2022-10-16T10:17:00;2.90;;;1.33;;
67528;SDS011;54366;51.980;5.856;2022-10-16T10:19:30;4.78;;;1.35;;
67528;SDS011;54366;51.980;5.856;2022-10-16T10:22:16;4.43;;;1.70;;
67528;SDS011;54366;51.980;5.856;2022-10-16T10:24:54;5.55;;;1.48;;
67528;SDS011;54366;51.980;5.856;2022-10-16T10:30:27;5.35;;;1.30;;
67528;SDS011;54366;51.980;5.856;2022-10-16T10:40:47;6.55;;;1.83;;
67528;SDS011;54366;51.980;5.856;2022-10-16T10:45:51;6.68;;;1.40;;
67528;SDS011;54366;51.980;5.856;2022-10-16T10:48:41;5.00;;;1.33;;
67528;SDS011;54366;51.980;5.856;2022-10-16T10:54:20;5.70;;;1.50;;
67528;SDS011;54366;51.980;5.856;2022-10-16T11:02:39;6.82;;;1.35;;
67528;SDS011;54366;51.980;5.856;2022-10-16T11:05:31;5.95;;;1.38;;
67528;SDS011;54366;51.980;5.856;2022-10-16T11:08:22;8.27;;;1.55;;
67528;SDS011;54366;51.980;5.856;2022-10-16T11:11:03;6.18;;;1.52;;
67528;SDS011;54366;51.980;5.856;2022-10-16T11:13:50;5.25;;;1.30;;
67528;SDS011;54366;51.980;5.856;2022-10-16T11:16:32;5.85;;;1.30;;
67528;SDS011;54366;51.980;5.856;2022-10-16T11:19:11;6.95;;;1.42;;
67528;SDS011;54366;51.980;5.856;2022-10-16T11:21:54;9.00;;;1.52;;
67528;SDS011;54366;51.980;5.856;2022-10-16T11:27:43;6.45;;;1.38;;
67528;SDS011;54366;51.980;5.856;2022-10-16T11:32:50;6.57;;;1.30;;
67528;SDS011;54366;51.980;5.856;2022-10-16T11:38:38;3.72;;;1.10;;
67528;SDS011;54366;51.980;5.856;2022-10-16T11:46:52;7.25;;;1.33;;
67528;SDS011;54366;51.980;5.856;2022-10-16T11:49:35;3.50;;;1.13;;
67528;SDS011;54366;51.980;5.856;2022-10-16T11:52:07;4.78;;;1.27;;
67528;SDS011;54366;51.980;5.856;2022-10-16T11:54:40;5.10;;;1.23;;
67528;SDS011;54366;51.980;5.856;2022-10-16T11:57:14;6.70;;;1.42;;
67528;SDS011;54366;51.980;5.856;2022-10-16T12:00:08;8.65;;;2.00;;
67528;SDS011;54366;51.980;5.856;2022-10-16T12:08:29;6.28;;;1.77;;
67528;SDS011;54366;51.980;5.856;2022-10-16T12:13:47;4.63;;;1.30;;
67528;SDS011;54366;51.980;5.856;2022-10-16T12:18:40;4.80;;;1.10;;
67528;SDS011;54366;51.980;5.856;2022-10-16T12:21:09;6.03;;;1.33;;
67528;SDS011;54366;51.980;5.856;2022-10-16T12:23:46;4.32;;;1.10;;
67528;SDS011;54366;51.980;5.856;2022-10-16T12:26:27;4.88;;;1.40;;
67528;SDS011;54366;51.980;5.856;2022-10-16T12:29:12;4.10;;;1.23;;
67528;SDS011;54366;51.980;5.856;2022-10-16T12:31:43;7.22;;;1.38;;
67528;SDS011;54366;51.980;5.856;2022-10-16T12:34:23;7.30;;;1.40;;
67528;SDS011;54366;51.980;5.856;2022-10-16T12:37:07;6.78;;;1.42;;
67528;SDS011;54366;51.980;5.856;2022-10-16T12:39:34;6.95;;;1.60;;
67528;SDS011;54366;51.980;5.856;2022-10-16T12:42:03;6.05;;;1.50;;
67528;SDS011;54366;51.980;5.856;2022-10-16T12:44:32;4.40;;;1.35;;
67528;SDS011;54366;51.980;5.856;2022-10-16T12:47:01;7.85;;;1.73;;
67528;SDS011;54366;51.980;5.856;2022-10-16T12:51:54;7.70;;;1.30;;
67528;SDS011;54366;51.980;5.856;2022-10-16T12:54:27;5.35;;;1.38;;
67528;SDS011;54366;51.980;5.856;2022-10-16T13:02:53;6.45;;;1.55;;
67528;SDS011;54366;51.980;5.856;2022-10-16T13:08:18;5.82;;;1.20;;
67528;SDS011;54366;51.980;5.856;2022-10-16T13:11:17;4.82;;;1.27;;
67528;SDS011;54366;51.980;5.856;2022-10-16T13:30:10;4.20;;;1.10;;
67528;SDS011;54366;51.980;5.856;2022-10-16T13:32:46;5.22;;;1.20;;
67528;SDS011;54366;51.980;5.856;2022-10-16T13:35:19;3.38;;;1.00;;
67528;SDS011;54366;51.980;5.856;2022-10-16T13:37:47;6.90;;;1.92;;
67528;SDS011;54366;51.980;5.856;2022-10-16T13:40:21;6.28;;;1.45;;
67528;SDS011;54366;51.980;5.856;2022-10-16T13:42:49;4.38;;;1.10;;
67528;SDS011;54366;51.980;5.856;2022-10-16T13:45:17;4.07;;;1.10;;
67528;SDS011;54366;51.980;5.856;2022-10-16T13:47:47;3.83;;;1.00;;
67528;SDS011;54366;51.980;5.856;2022-10-16T13:50:15;4.72;;;1.13;;
67528;SDS011;54366;51.980;5.856;2022-10-16T13:52:43;3.67;;;1.00;;
67528;SDS011;54366;51.980;5.856;2022-10-16T13:55:13;4.50;;;1.20;;
67528;SDS011;54366;51.980;5.856;2022-10-16T13:57:41;4.03;;;1.55;;
67528;SDS011;54366;51.980;5.856;2022-10-16T14:00:25;5.88;;;1.52;;
67528;SDS011;54366;51.980;5.856;2022-10-16T14:02:57;6.82;;;1.52;;
67528;SDS011;54366;51.980;5.856;2022-10-16T14:05:27;6.22;;;1.45;;
67528;SDS011;54366;51.980;5.856;2022-10-16T14:07:54;6.13;;;1.08;;
67528;SDS011;54366;51.980;5.856;2022-10-16T14:10:31;5.05;;;1.20;;
67528;SDS011;54366;51.980;5.856;2022-10-16T14:13:02;7.30;;;1.90;;
67528;SDS011;54366;51.980;5.856;2022-10-16T14:15:31;5.57;;;1.50;;
67528;SDS011;54366;51.980;5.856;2022-10-16T14:17:59;4.05;;;1.05;;
67528;SDS011;54366;51.980;5.856;2022-10-16T14:20:27;6.45;;;1.15;;
67528;SDS011;54366;51.980;5.856;2022-10-16T14:22:59;4.20;;;1.15;;
67528;SDS011;54366;51.980;5.856;2022-10-16T14:25:31;5.38;;;1.17;;
67528;SDS011;54366;51.980;5.856;2022-10-16T14:30:24;3.10;;;1.10;;
67528;SDS011;54366;51.980;5.856;2022-10-16T14:37:55;2.08;;;0.40;;
67528;SDS011;54366;51.980;5.856;2022-10-16T14:40:23;3.47;;;0.70;;
67528;SDS011;54366;51.980;5.856;2022-10-16T14:42:57;4.85;;;0.80;;
67528;SDS011;54366;51.980;5.856;2022-10-16T14:45:25;4.78;;;0.82;;
67528;SDS011;54366;51.980;5.856;2022-10-16T14:47:54;4.32;;;0.90;;
67528;SDS011;54366;51.980;5.856;2022-10-16T14:50:22;4.00;;;0.75;;
67528;SDS011;54366;51.980;5.856;2022-10-16T14:52:49;2.90;;;0.85;;
67528;SDS011;54366;51.980;5.856;2022-10-16T14:55:15;3.50;;;0.82;;
67528;SDS011;54366;51.980;5.856;2022-10-16T14:57:42;3.78;;;1.20;;
67528;SDS011;54366;51.980;5.856;2022-10-16T15:00:18;4.57;;;1.00;;
67528;SDS011;54366;51.980;5.856;2022-10-16T15:02:47;4.63;;;1.30;;
67528;SDS011;54366;51.980;5.856;2022-10-16T15:05:19;3.72;;;1.00;;
67528;SDS011;54366;51.980;5.856;2022-10-16T15:07:55;4.43;;;1.20;;
67528;SDS011;54366;51.980;5.856;2022-10-16T15:10:22;4.10;;;1.00;;
67528;SDS011;54366;51.980;5.856;2022-10-16T15:12:49;3.65;;;0.98;;
67528;SDS011;54366;51.980;5.856;2022-10-16T15:17:54;5.05;;;1.23;;
67528;SDS011;54366;51.980;5.856;2022-10-16T15:20:23;3.72;;;1.30;;
67528;SDS011;54366;51.980;5.856;2022-10-16T15:22:50;3.63;;;0.85;;
67528;SDS011;54366;51.980;5.856;2022-10-16T15:27:54;4.00;;;1.13;;
67528;SDS011;54366;51.980;5.856;2022-10-16T15:30:20;5.85;;;1.20;;
67528;SDS011;54366;51.980;5.856;2022-10-16T15:32:47;5.00;;;1.27;;
67528;SDS011;54366;51.980;5.856;2022-10-16T15:35:13;3.15;;;0.90;;
67528;SDS011;54366;51.980;5.856;2022-10-16T15:37:39;3.92;;;0.98;;
67528;SDS011;54366;51.980;5.856;2022-10-16T15:40:06;5.25;;;1.27;;
67528;SDS011;54366;51.980;5.856;2022-10-16T15:42:32;4.70;;;1.20;;
67528;SDS011;54366;51.980;5.856;2022-10-16T15:44:58;4.20;;;0.90;;
67528;SDS011;54366;51.980;5.856;2022-10-16T15:47:25;6.13;;;1.50;;
67528;SDS011;54366;51.980;5.856;2022-10-16T15:49:51;3.70;;;1.30;;
67528;SDS011;54366;51.980;5.856;2022-10-16T15:52:17;4.68;;;1.60;;
67528;SDS011;54366;51.980;5.856;2022-10-16T15:54:43;5.38;;;1.65;;
67528;SDS011;54366;51.980;5.856;2022-10-16T15:57:10;4.80;;;1.40;;
67528;SDS011;54366;51.980;5.856;2022-10-16T15:59:36;4.88;;;1.50;;
67528;SDS011;54366;51.980;5.856;2022-10-16T16:02:02;4.60;;;1.38;;
67528;SDS011;54366;51.980;5.856;2022-10-16T16:04:31;4.28;;;1.10;;
67528;SDS011;54366;51.980;5.856;2022-10-16T16:06:57;5.55;;;0.85;;
67528;SDS011;54366;51.980;5.856;2022-10-16T16:09:24;5.93;;;1.50;;
67528;SDS011;54366;51.980;5.856;2022-10-16T16:11:50;4.53;;;1.50;;
67528;SDS011;54366;51.980;5.856;2022-10-16T16:14:17;6.72;;;2.30;;
67528;SDS011;54366;51.980;5.856;2022-10-16T16:16:44;5.07;;;1.95;;
67528;SDS011;54366;51.980;5.856;2022-10-16T16:19:10;5.00;;;3.35;;
67528;SDS011;54366;51.980;5.856;2022-10-16T16:21:36;7.03;;;5.00;;
67528;SDS011;54366;51.980;5.856;2022-10-16T16:24:02;12.15;;;7.65;;
67528;SDS011;54366;51.980;5.856;2022-10-16T16:26:33;8.73;;;4.60;;
67528;SDS011;54366;51.980;5.856;2022-10-16T16:29:03;4.47;;;1.95;;
67528;SDS011;54366;51.980;5.856;2022-10-16T16:31:30;5.53;;;1.73;;
67528;SDS011;54366;51.980;5.856;2022-10-16T16:33:58;5.75;;;2.67;;
67528;SDS011;54366;51.980;5.856;2022-10-16T16:36:24;6.38;;;2.40;;
67528;SDS011;54366;51.980;5.856;2022-10-16T16:38:51;4.40;;;2.55;;
67528;SDS011;54366;51.980;5.856;2022-10-16T16:41:19;5.45;;;2.47;;
67528;SDS011;54366;51.980;5.856;2022-10-16T16:43:47;7.63;;;3.60;;
67528;SDS011;54366;51.980;5.856;2022-10-16T16:46:13;6.30;;;3.13;;
67528;SDS011;54366;51.980;5.856;2022-10-16T16:48:40;6.97;;;2.58;;
67528;SDS011;54366;51.980;5.856;2022-10-16T16:51:07;6.35;;;2.65;;
67528;SDS011;54366;51.980;5.856;2022-10-16T16:53:43;4.78;;;1.90;;
67528;SDS011;54366;51.980;5.856;2022-10-16T16:56:11;5.95;;;1.70;;
67528;SDS011;54366;51.980;5.856;2022-10-16T16:58:38;5.43;;;1.90;;
67528;SDS011;54366;51.980;5.856;2022-10-16T17:01:04;4.65;;;2.80;;
67528;SDS011;54366;51.980;5.856;2022-10-16T17:03:32;3.92;;;2.47;;
67528;SDS011;54366;51.980;5.856;2022-10-16T17:06:04;8.73;;;4.80;;
67528;SDS011;54366;51.980;5.856;2022-10-16T17:08:34;5.82;;;4.28;;
67528;SDS011;54366;51.980;5.856;2022-10-16T17:11:01;5.30;;;4.90;;
67528;SDS011;54366;51.980;5.856;2022-10-16T17:13:28;5.63;;;5.00;;
67528;SDS011;54366;51.980;5.856;2022-10-16T17:15:56;5.18;;;3.75;;